Time;durP1;ratioP1;P1;durP2;ratioP2;P2;SDS_P1;SDS_P2;PMS_P1;PMS_P2;Temp;Humidity;BMP_temperature;BMP_pressure;BME280_temperature;BME280_humidity;BME280_pressure;Samples;Min_cycle;Max_cycle;Signal;HPM_P1;HPM_P2
2022/09/30 00:01:35;;;;;;;6.70;5.18;;;10.10;99.90;;;;;;5069302;28;20040;-67
2022/09/30 00:04:02;;;;;;;6.75;6.15;;;10.10;99.90;;;;;;5069710;28;20049;-66
2022/09/30 00:06:29;;;;;;;5.80;5.30;;;10.00;99.90;;;;;;5072976;28;20035;-67
2022/09/30 00:08:56;;;;;;;4.97;4.57;;;10.00;99.90;;;;;;5067971;28;20032;-67
2022/09/30 00:11:29;;;;;;;5.07;4.57;;;10.00;99.90;;;;;;5073594;28;20047;-67
2022/09/30 00:13:57;;;;;;;5.05;4.63;;;10.00;99.90;;;;;;5072064;28;20433;-67
2022/09/30 00:16:24;;;;;;;5.95;5.18;;;10.00;99.90;;;;;;5073931;28;20382;-67
2022/09/30 00:18:49;;;;;;;5.60;5.10;;;10.00;99.90;;;;;;5069662;28;20087;-66
2022/09/30 00:21:16;;;;;;;5.78;5.13;;;9.90;99.90;;;;;;5056228;28;20125;-66
2022/09/30 00:23:42;;;;;;;6.03;5.50;;;10.00;99.90;;;;;;5072247;28;20040;-68
2022/09/30 00:26:12;;;;;;;6.68;5.07;;;9.90;99.90;;;;;;5070776;28;20048;-67
2022/09/30 00:28:39;;;;;;;6.00;5.40;;;9.90;99.90;;;;;;5072350;28;20106;-67
2022/09/30 00:31:08;;;;;;;6.35;5.40;;;9.80;99.90;;;;;;5068423;28;20495;-67
2022/09/30 00:33:34;;;;;;;7.78;6.13;;;9.80;99.90;;;;;;5071817;28;20123;-67
2022/09/30 00:36:01;;;;;;;5.60;5.10;;;9.80;99.90;;;;;;5071995;28;20059;-66
2022/09/30 00:38:27;;;;;;;5.50;5.00;;;9.80;99.90;;;;;;5072131;28;20028;-67
2022/09/30 00:40:52;;;;;;;5.70;5.20;;;9.70;99.90;;;;;;5071534;28;20148;-67
2022/09/30 00:43:38;;;;;;;6.35;5.60;;;9.70;99.90;;;;;;5071694;28;20115;-67
2022/09/30 00:46:05;;;;;;;6.00;4.93;;;9.70;99.90;;;;;;5070769;28;20027;-66
2022/09/30 00:48:36;;;;;;;6.03;5.43;;;9.60;99.90;;;;;;5071510;28;20071;-66
2022/09/30 00:51:05;;;;;;;6.13;5.53;;;9.60;99.90;;;;;;5069099;28;20123;-67
2022/09/30 00:53:53;;;;;;;5.90;5.32;;;9.50;99.90;;;;;;5069248;28;20051;-68
2022/09/30 00:56:32;;;;;;;6.00;4.72;;;9.40;99.90;;;;;;5069451;28;20043;-66
2022/09/30 00:59:09;;;;;;;5.20;4.70;;;9.40;99.90;;;;;;5052692;28;20052;-66
2022/09/30 01:01:40;;;;;;;5.45;4.95;;;9.40;99.90;;;;;;5069887;28;20052;-67
2022/09/30 01:04:11;;;;;;;9.63;4.95;;;9.30;99.90;;;;;;5071070;28;20391;-67
2022/09/30 01:06:37;;;;;;;4.93;4.10;;;9.30;99.90;;;;;;5063497;28;20378;-67
2022/09/30 01:09:03;;;;;;;4.95;4.30;;;9.20;99.90;;;;;;5070593;28;20036;-67
2022/09/30 01:11:30;;;;;;;4.22;3.83;;;9.20;99.90;;;;;;5070369;28;20035;-67
2022/09/30 01:14:00;;;;;;;3.80;3.50;;;9.10;99.90;;;;;;5071233;28;20376;-67
2022/09/30 01:17:02;;;;;;;3.67;3.38;;;9.00;99.90;;;;;;5070720;28;20032;-66
2022/09/30 01:20:10;;;;;;;3.80;3.50;;;8.90;99.90;;;;;;5071852;28;20044;-67
2022/09/30 01:22:43;;;;;;;3.60;3.30;;;8.90;99.90;;;;;;5052806;28;20047;-67
2022/09/30 01:25:08;;;;;;;;;;;8.90;99.90;;;;;;5051784;28;20494;-66
2022/09/30 01:27:49;;;;;;;3.03;2.72;;;8.80;99.90;;;;;;5070785;28;19923;-67
2022/09/30 01:30:40;;;;;;;3.28;3.05;;;8.80;99.90;;;;;;5057385;28;20045;-67
2022/09/30 01:33:30;;;;;;;3.15;2.85;;;8.80;99.90;;;;;;5055869;28;20124;-67
2022/09/30 01:36:05;;;;;;;28.33;3.92;;;8.80;99.90;;;;;;5077204;28;20048;-66
2022/09/30 01:38:43;;;;;;;12.98;3.85;;;8.70;99.90;;;;;;5055573;28;20117;-67
2022/09/30 01:41:36;;;;;;;5.47;3.67;;;8.70;99.90;;;;;;5065473;28;20036;-67
2022/09/30 01:44:16;;;;;;;4.88;3.35;;;8.70;99.90;;;;;;5053072;28;20551;-67
2022/09/30 01:46:48;;;;;;;4.00;3.35;;;8.70;99.90;;;;;;5067711;28;20114;-66
2022/09/30 01:49:29;;;;;;;2.88;2.63;;;8.70;99.90;;;;;;5054724;28;20440;-66
2022/09/30 01:52:09;;;;;;;3.80;3.40;;;8.60;99.90;;;;;;5036084;28;20123;-67
2022/09/30 01:54:41;;;;;;;3.88;3.50;;;8.60;99.90;;;;;;5035733;28;20044;-66
2022/09/30 01:57:16;;;;;;;3.90;3.60;;;8.60;99.90;;;;;;5057915;28;20130;-66
2022/09/30 01:59:52;;;;;;;15.65;2.50;;;8.50;99.90;;;;;;5055178;28;20052;-67
2022/09/30 02:02:24;;;;;;;2.40;2.20;;;8.50;99.90;;;;;;5088612;28;20124;-67
2022/09/30 02:04:57;;;;;;;3.78;2.72;;;8.50;99.90;;;;;;5037258;28;20403;-67
2022/09/30 02:07:37;;;;;;;7.88;2.95;;;8.50;99.90;;;;;;5054990;28;20040;-67
2022/09/30 02:10:19;;;;;;;15.38;2.15;;;8.40;99.90;;;;;;5053992;28;20048;-68
2022/09/30 02:13:04;;;;;;;20.98;2.33;;;8.40;99.90;;;;;;5055632;28;20040;-67
2022/09/30 02:15:38;;;;;;;4.28;2.80;;;8.40;99.90;;;;;;5053936;28;20137;-66
2022/09/30 02:18:16;;;;;;;3.03;2.67;;;8.30;99.90;;;;;;5051350;28;20036;-67
2022/09/30 02:20:43;;;;;;;4.05;3.75;;;8.30;99.90;;;;;;5048211;28;20059;-66
2022/09/30 02:23:16;;;;;;;4.40;4.00;;;8.30;99.90;;;;;;5063542;28;20111;-67
2022/09/30 02:25:46;;;;;;;3.75;3.45;;;8.30;99.90;;;;;;5057692;28;20044;-66
2022/09/30 02:28:20;;;;;;;4.55;3.90;;;8.20;99.90;;;;;;5066133;28;20414;-67
2022/09/30 02:30:51;;;;;;;3.60;3.30;;;8.20;99.90;;;;;;5074141;28;20048;-67
2022/09/30 02:33:24;;;;;;;4.13;3.83;;;8.10;99.90;;;;;;5075479;28;20040;-66
2022/09/30 02:35:56;;;;;;;3.65;3.35;;;8.10;99.90;;;;;;5073926;28;20072;-66
2022/09/30 02:38:29;;;;;;;4.38;3.97;;;8.10;99.90;;;;;;5068308;28;20040;-67
2022/09/30 02:40:56;;;;;;;4.75;4.28;;;8.10;99.90;;;;;;5073841;28;20040;-66
2022/09/30 02:43:22;;;;;;;4.53;4.13;;;8.10;99.90;;;;;;5073179;28;20094;-66
2022/09/30 02:45:58;;;;;;;4.65;3.65;;;8.10;99.90;;;;;;5075415;28;20039;-67
2022/09/30 02:48:31;;;;;;;4.35;3.90;;;8.10;99.90;;;;;;5075356;28;20036;-67
2022/09/30 02:51:04;;;;;;;3.58;3.28;;;8.00;99.90;;;;;;5073094;28;20044;-67
2022/09/30 02:53:55;;;;;;;3.85;3.55;;;8.00;99.90;;;;;;5058539;28;20042;-67
2022/09/30 02:56:43;;;;;;;4.22;3.83;;;7.90;99.90;;;;;;5074209;28;20036;-67
2022/09/30 02:59:08;;;;;;;5.47;4.00;;;7.90;99.90;;;;;;5074990;28;20046;-67
2022/09/30 03:01:40;;;;;;;55.17;4.20;;;7.90;99.90;;;;;;5074999;28;20134;-66
2022/09/30 03:04:08;;;;;;;13.07;3.60;;;7.90;99.90;;;;;;5075112;28;20131;-67
2022/09/30 03:06:35;;;;;;;7.35;3.30;;;7.80;99.90;;;;;;5074996;28;20044;-66
2022/09/30 03:09:01;;;;;;;11.57;2.65;;;7.70;99.90;;;;;;5075457;28;20036;-66
2022/09/30 03:11:27;;;;;;;4.75;2.40;;;7.70;99.90;;;;;;5074125;28;20094;-66
2022/09/30 03:14:12;;;;;;;7.63;2.60;;;7.60;99.90;;;;;;5070833;28;20043;-67
2022/09/30 03:16:59;;;;;;;3.10;2.80;;;7.60;99.90;;;;;;5071482;28;20089;-67
2022/09/30 03:19:48;;;;;;;4.05;3.15;;;7.50;99.90;;;;;;5073796;28;20044;-66
2022/09/30 03:22:29;;;;;;;5.22;2.90;;;7.50;99.90;;;;;;5071438;28;20521;-66
2022/09/30 03:25:04;;;;;;;3.42;3.13;;;7.40;99.90;;;;;;5073383;28;20130;-67
2022/09/30 03:27:59;;;;;;;8.00;4.47;;;7.40;99.90;;;;;;5073320;28;20077;-67
2022/09/30 03:30:26;;;;;;;3.35;3.05;;;7.40;99.90;;;;;;5054938;28;20073;-66
2022/09/30 03:33:06;;;;;;;3.63;3.33;;;7.40;99.90;;;;;;5069533;28;20082;-66
2022/09/30 03:35:54;;;;;;;7.60;3.25;;;7.30;99.90;;;;;;5055462;28;20444;-67
2022/09/30 03:39:01;;;;;;;3.10;2.80;;;7.30;99.90;;;;;;5072457;28;20035;-67
2022/09/30 03:41:32;;;;;;;3.03;2.40;;;7.30;99.90;;;;;;5008409;28;20583;-66
2022/09/30 03:44:15;;;;;;;3.85;2.80;;;7.20;99.90;;;;;;5011986;28;20062;-67
2022/09/30 03:46:44;;;;;;;3.80;2.88;;;7.20;99.90;;;;;;5011232;28;20084;-66
2022/09/30 03:49:16;;;;;;;12.95;3.10;;;7.20;99.90;;;;;;5013301;28;20053;-66
2022/09/30 03:51:42;;;;;;;46.17;3.33;;;7.20;99.90;;;;;;5012694;28;20037;-65
2022/09/30 03:54:12;;;;;;;13.80;2.60;;;7.10;99.90;;;;;;5010345;28;20092;-67
2022/09/30 03:56:41;;;;;;;8.75;2.50;;;7.10;99.90;;;;;;5029477;28;20116;-67
2022/09/30 03:59:16;;;;;;;2.60;2.40;;;7.10;99.90;;;;;;5011819;28;20124;-67
2022/09/30 04:01:41;;;;;;;2.70;2.50;;;7.00;99.90;;;;;;5009265;28;20045;-67
2022/09/30 04:04:07;;;;;;;2.40;2.20;;;7.00;99.90;;;;;;5029311;28;20042;-66
2022/09/30 04:06:33;;;;;;;2.22;2.10;;;7.00;99.90;;;;;;5012705;28;20053;-66
2022/09/30 04:08:59;;;;;;;2.30;2.10;;;7.00;99.90;;;;;;5012021;28;20049;-67
2022/09/30 04:11:25;;;;;;;2.97;2.20;;;7.00;99.90;;;;;;5011653;28;20500;-66
2022/09/30 04:13:51;;;;;;;2.35;2.15;;;7.00;99.90;;;;;;5011402;28;20112;-67
2022/09/30 04:16:16;;;;;;;6.18;3.10;;;7.00;99.90;;;;;;5011566;28;20163;-66
2022/09/30 04:18:42;;;;;;;7.10;4.05;;;6.90;99.90;;;;;;5048447;28;20040;-66
2022/09/30 04:21:10;;;;;;;5.18;3.83;;;6.90;99.90;;;;;;5072101;28;20119;-67
2022/09/30 04:23:37;;;;;;;4.15;3.45;;;6.90;99.90;;;;;;5071312;28;20036;-66
2022/09/30 04:26:05;;;;;;;3.30;3.00;;;6.90;99.90;;;;;;5071155;28;20044;-67
2022/09/30 04:28:31;;;;;;;3.50;3.20;;;6.90;99.90;;;;;;5071584;28;20052;-66
2022/09/30 04:31:05;;;;;;;3.83;3.42;;;6.90;99.90;;;;;;5069607;28;20051;-66
2022/09/30 04:33:30;;;;;;;3.80;3.33;;;6.80;99.90;;;;;;5070956;28;20727;-66
2022/09/30 04:35:57;;;;;;;3.47;3.17;;;6.90;99.90;;;;;;5071444;28;20048;-67
2022/09/30 04:38:24;;;;;;;3.22;2.85;;;6.80;99.90;;;;;;5071233;28;20035;-67
2022/09/30 04:40:51;;;;;;;2.97;2.67;;;6.80;99.90;;;;;;5054026;28;20052;-67
2022/09/30 04:43:18;;;;;;;2.95;2.28;;;6.80;99.90;;;;;;5069811;28;20058;-67
2022/09/30 04:45:47;;;;;;;4.15;2.53;;;6.70;99.90;;;;;;5055155;28;21561;-67
2022/09/30 04:48:14;;;;;;;2.65;2.45;;;6.70;99.90;;;;;;5072149;28;20036;-67
2022/09/30 04:50:40;;;;;;;2.78;2.58;;;6.70;99.90;;;;;;5071718;28;20048;-67
2022/09/30 04:53:07;;;;;;;3.00;2.70;;;6.60;99.90;;;;;;5073018;28;20040;-67
2022/09/30 04:55:32;;;;;;;2.78;2.40;;;6.60;99.90;;;;;;5054190;28;20064;-67
2022/09/30 04:57:58;;;;;;;2.60;2.40;;;6.50;99.90;;;;;;5070558;28;20068;-66
2022/09/30 05:00:24;;;;;;;3.20;2.78;;;6.50;99.90;;;;;;5069663;28;20040;-67
2022/09/30 05:02:50;;;;;;;2.95;2.70;;;6.50;99.90;;;;;;5071465;28;20046;-66
2022/09/30 05:05:17;;;;;;;2.95;2.70;;;6.40;99.90;;;;;;5068412;28;20094;-66
2022/09/30 05:07:42;;;;;;;2.63;2.42;;;6.40;99.90;;;;;;5068676;28;20046;-67
2022/09/30 05:10:10;;;;;;;2.60;2.40;;;6.40;99.90;;;;;;5088038;28;20033;-66
2022/09/30 05:12:36;;;;;;;2.80;2.60;;;6.40;99.90;;;;;;5052635;28;20085;-67
2022/09/30 05:15:03;;;;;;;2.85;2.58;;;6.40;99.90;;;;;;5071859;28;20038;-67
2022/09/30 05:17:30;;;;;;;2.80;2.60;;;6.40;99.90;;;;;;5052501;28;20036;-67
2022/09/30 05:19:56;;;;;;;4.38;2.60;;;6.30;99.90;;;;;;5071432;28;20069;-67
2022/09/30 05:22:23;;;;;;;5.18;2.83;;;6.30;99.90;;;;;;5068794;28;20040;-67
2022/09/30 05:24:50;;;;;;;3.92;3.22;;;6.40;99.90;;;;;;5071054;28;20944;-66
2022/09/30 05:27:16;;;;;;;3.42;2.95;;;6.40;99.90;;;;;;5070930;28;20044;-67
2022/09/30 05:29:42;;;;;;;3.00;2.80;;;6.30;99.90;;;;;;5088337;28;20052;-67
2022/09/30 05:32:08;;;;;;;3.65;3.35;;;6.30;99.90;;;;;;5088838;28;20105;-67
2022/09/30 05:34:34;;;;;;;4.43;3.03;;;6.30;99.90;;;;;;5086698;28;20047;-66
2022/09/30 05:36:59;;;;;;;3.47;3.17;;;6.30;99.90;;;;;;5089087;28;20482;-66
2022/09/30 05:39:25;;;;;;;3.53;3.22;;;6.30;99.90;;;;;;5089270;28;20082;-67
2022/09/30 05:41:51;;;;;;;3.55;3.25;;;6.30;99.90;;;;;;5089466;28;20043;-67
2022/09/30 05:44:17;;;;;;;4.20;3.30;;;6.30;99.90;;;;;;5087158;28;20043;-66
2022/09/30 05:46:43;;;;;;;3.28;2.97;;;6.30;99.90;;;;;;5088555;28;20173;-66
2022/09/30 05:49:09;;;;;;;3.83;3.42;;;6.30;99.90;;;;;;5088922;28;20126;-66
2022/09/30 05:51:35;;;;;;;3.90;3.50;;;6.30;99.90;;;;;;5072381;28;20082;-66
2022/09/30 05:54:01;;;;;;;4.32;3.00;;;6.30;99.90;;;;;;5089861;28;20064;-67
2022/09/30 05:56:26;;;;;;;4.10;3.70;;;6.30;99.90;;;;;;5072355;28;20078;-66
2022/09/30 05:58:52;;;;;;;7.35;4.55;;;6.40;99.90;;;;;;5088942;28;20047;-67
2022/09/30 06:01:17;;;;;;;8.43;4.68;;;6.40;99.90;;;;;;5088315;28;20044;-67
2022/09/30 06:03:44;;;;;;;4.93;4.25;;;6.50;99.90;;;;;;5070682;28;20032;-66
2022/09/30 06:06:12;;;;;;;6.13;4.68;;;6.50;99.90;;;;;;5088978;28;20040;-66
2022/09/30 06:08:39;;;;;;;4.80;4.15;;;6.50;99.90;;;;;;5088571;28;20059;-67
2022/09/30 06:11:13;;;;;;;5.72;4.35;;;6.50;99.90;;;;;;5105453;28;20162;-67
2022/09/30 06:13:40;;;;;;;5.10;4.60;;;6.60;99.90;;;;;;5088007;28;20063;-68
2022/09/30 06:16:07;;;;;;;6.50;4.90;;;6.60;99.90;;;;;;5088646;28;20414;-68
2022/09/30 06:18:33;;;;;;;5.90;5.15;;;6.60;99.90;;;;;;5087533;28;20043;-66
2022/09/30 06:21:01;;;;;;;6.00;5.13;;;6.70;99.90;;;;;;5072063;28;20047;-67
2022/09/30 06:23:27;;;;;;;6.45;5.80;;;6.70;99.90;;;;;;5087918;28;20094;-67
2022/09/30 06:25:54;;;;;;;7.10;5.40;;;6.80;99.90;;;;;;5085643;28;20105;-68
2022/09/30 06:28:20;;;;;;;5.97;5.40;;;6.90;99.90;;;;;;5085200;28;20063;-67
2022/09/30 06:30:47;;;;;;;5.80;5.30;;;7.00;99.90;;;;;;5071078;28;20044;-67
2022/09/30 06:33:14;;;;;;;6.88;6.18;;;7.10;99.90;;;;;;5088518;28;20068;-66
2022/09/30 06:35:41;;;;;;;7.40;5.50;;;7.20;99.90;;;;;;5088024;28;20057;-68
2022/09/30 06:38:10;;;;;;;6.85;5.60;;;7.20;99.90;;;;;;5089657;28;20039;-66
2022/09/30 06:40:36;;;;;;;7.97;6.43;;;7.30;99.90;;;;;;5088115;28;20035;-67
2022/09/30 06:43:02;;;;;;;9.15;5.97;;;7.30;99.90;;;;;;5088277;28;20036;-67
2022/09/30 06:45:31;;;;;;;7.13;5.95;;;7.40;99.90;;;;;;5088329;28;20036;-66
2022/09/30 06:47:58;;;;;;;9.13;6.28;;;7.40;99.90;;;;;;5088379;28;20079;-67
2022/09/30 06:50:25;;;;;;;7.88;6.57;;;7.50;99.90;;;;;;5091850;28;20047;-67
2022/09/30 06:52:51;;;;;;;10.13;6.30;;;7.50;99.90;;;;;;5091762;28;20093;-67
2022/09/30 06:55:17;;;;;;;7.53;6.40;;;7.70;99.90;;;;;;5091690;28;20035;-66
2022/09/30 06:57:46;;;;;;;7.50;6.70;;;7.80;99.90;;;;;;5091646;28;20440;-67
2022/09/30 07:00:14;;;;;;;7.05;6.38;;;7.90;99.90;;;;;;5092933;28;20094;-67
2022/09/30 07:02:40;;;;;;;6.80;6.18;;;8.00;99.90;;;;;;5091552;28;20051;-67
2022/09/30 07:05:06;;;;;;;6.95;6.13;;;8.10;99.90;;;;;;5091346;28;20036;-66
2022/09/30 07:07:33;;;;;;;8.43;6.43;;;8.10;99.90;;;;;;5089567;28;20040;-67
2022/09/30 07:09:59;;;;;;;7.38;6.47;;;8.20;99.90;;;;;;5091411;28;20579;-67
2022/09/30 07:12:25;;;;;;;7.70;6.30;;;8.40;99.90;;;;;;5094638;28;20052;-67
2022/09/30 07:14:51;;;;;;;8.13;6.60;;;8.50;99.90;;;;;;5074540;28;20451;-67
2022/09/30 07:17:17;;;;;;;9.10;6.50;;;8.60;99.90;;;;;;5092127;28;20074;-67
2022/09/30 07:19:43;;;;;;;7.05;6.03;;;8.80;99.90;;;;;;5091912;28;20117;-67
2022/09/30 07:22:27;;;;;;;9.20;6.40;;;8.90;99.90;;;;;;5091839;28;20102;-66
2022/09/30 07:24:53;;;;;;;7.68;6.50;;;9.00;99.90;;;;;;5074441;28;20044;-67
2022/09/30 07:27:19;;;;;;;7.78;5.90;;;9.20;99.90;;;;;;5091846;28;20528;-67
2022/09/30 07:29:46;;;;;;;8.20;5.95;;;9.30;99.90;;;;;;5090597;28;20056;-67
2022/09/30 07:32:11;;;;;;;7.07;6.07;;;9.40;99.90;;;;;;5091552;28;20042;-67
2022/09/30 07:34:41;;;;;;;6.43;5.70;;;9.60;99.90;;;;;;5087374;28;20107;-68
2022/09/30 07:37:08;;;;;;;8.88;6.72;;;9.70;99.90;;;;;;5089974;28;20048;-67
2022/09/30 07:39:35;;;;;;;7.63;6.25;;;9.80;99.90;;;;;;5074625;28;20036;-68
2022/09/30 07:42:03;;;;;;;6.85;5.38;;;9.90;99.90;;;;;;5091611;28;20388;-67
2022/09/30 07:44:29;;;;;;;7.15;6.22;;;9.90;99.90;;;;;;5091453;28;20113;-67
2022/09/30 07:46:55;;;;;;;6.55;5.90;;;9.90;99.90;;;;;;5091056;28;20044;-68
2022/09/30 07:49:24;;;;;;;7.15;6.00;;;10.00;99.90;;;;;;5074083;28;20123;-68
2022/09/30 07:51:52;;;;;;;6.80;6.13;;;10.10;99.90;;;;;;5091101;28;20044;-67
2022/09/30 07:54:21;;;;;;;7.30;6.63;;;10.20;99.90;;;;;;5090991;28;20036;-68
2022/09/30 07:56:48;;;;;;;7.07;6.28;;;10.30;99.90;;;;;;5074105;28;20040;-67
2022/09/30 07:59:14;;;;;;;7.00;6.00;;;10.30;99.90;;;;;;5073795;28;20108;-67
2022/09/30 08:01:40;;;;;;;7.03;6.32;;;10.60;99.90;;;;;;5091168;28;20031;-67
2022/09/30 08:04:08;;;;;;;7.50;6.80;;;10.70;99.90;;;;;;5090531;28;20177;-67
2022/09/30 08:06:44;;;;;;;8.38;6.22;;;10.90;99.90;;;;;;5090896;28;20044;-67
2022/09/30 08:09:10;;;;;;;8.23;6.15;;;11.10;99.90;;;;;;5090551;28;20153;-68
2022/09/30 08:11:37;;;;;;;7.35;6.65;;;11.30;99.90;;;;;;5090927;28;20421;-67
2022/09/30 08:14:04;;;;;;;6.93;6.22;;;11.50;99.90;;;;;;5090729;28;20418;-68
2022/09/30 08:16:30;;;;;;;9.88;6.82;;;11.60;99.90;;;;;;5087174;28;20032;-66
2022/09/30 08:18:58;;;;;;;8.20;7.40;;;11.70;99.90;;;;;;5073577;28;20063;-67
2022/09/30 08:21:23;;;;;;;8.20;6.63;;;11.80;99.90;;;;;;5090632;28;20028;-68
2022/09/30 08:23:49;;;;;;;6.55;5.95;;;12.00;99.90;;;;;;5089687;28;20058;-67
2022/09/30 08:26:15;;;;;;;7.13;6.05;;;12.20;99.90;;;;;;5090104;28;20040;-67
2022/09/30 08:28:45;;;;;;;7.28;5.85;;;12.30;99.90;;;;;;5073169;28;20052;-67
2022/09/30 08:31:14;;;;;;;5.95;5.38;;;12.50;99.90;;;;;;5089932;28;20048;-68
2022/09/30 08:33:40;;;;;;;6.25;5.10;;;12.60;99.90;;;;;;5089986;28;20142;-68
2022/09/30 08:36:14;;;;;;;8.95;5.57;;;12.70;99.90;;;;;;5090245;28;20036;-67
2022/09/30 08:38:41;;;;;;;6.20;5.07;;;12.80;99.90;;;;;;5089384;28;20040;-67
2022/09/30 08:41:19;;;;;;;5.43;4.93;;;13.00;99.90;;;;;;5090082;28;20074;-67
2022/09/30 08:44:09;;;;;;;6.68;4.80;;;13.20;99.90;;;;;;5089940;28;20043;-69
2022/09/30 08:46:45;;;;;;;5.68;5.07;;;13.40;99.90;;;;;;5081197;28;20452;-67
2022/09/30 08:49:43;;;;;;;7.90;5.13;;;13.50;99.90;;;;;;5090042;28;20043;-67
2022/09/30 08:52:34;;;;;;;7.88;4.47;;;13.70;99.90;;;;;;5089886;28;20048;-67
2022/09/30 08:55:00;;;;;;;5.10;4.60;;;13.90;99.90;;;;;;4992628;28;20053;-67
2022/09/30 08:57:35;;;;;;;5.18;4.70;;;14.00;99.90;;;;;;4992098;28;20100;-67
2022/09/30 09:00:06;;;;;;;5.93;4.38;;;14.20;99.90;;;;;;4992605;28;20132;-67
2022/09/30 09:02:39;;;;;;;5.57;4.97;;;14.30;99.90;;;;;;4976177;28;20095;-68
2022/09/30 09:05:06;;;;;;;4.85;4.38;;;14.40;99.90;;;;;;4992904;28;20056;-67
2022/09/30 09:07:45;;;;;;;5.72;5.20;;;14.50;99.90;;;;;;4991585;28;20053;-68
2022/09/30 09:10:13;;;;;;;7.60;4.68;;;14.60;99.90;;;;;;4973070;28;20057;-67
2022/09/30 09:12:56;;;;;;;5.68;5.00;;;14.80;99.90;;;;;;4971838;28;20054;-68
2022/09/30 09:15:39;;;;;;;4.65;4.20;;;15.00;99.90;;;;;;4992687;28;20049;-68
2022/09/30 09:18:14;;;;;;;7.50;4.80;;;15.20;99.90;;;;;;4975064;28;20132;-69
2022/09/30 09:20:59;;;;;;;5.45;4.32;;;15.40;99.90;;;;;;4975850;28;20048;-68
2022/09/30 09:23:27;;;;;;;4.70;4.30;;;15.50;99.90;;;;;;4990960;28;20058;-68
2022/09/30 09:25:54;;;;;;;5.22;4.72;;;15.60;99.90;;;;;;5014809;28;20050;-67
2022/09/30 09:28:42;;;;;;;5.85;5.13;;;15.60;99.90;;;;;;4986284;28;20146;-67
2022/09/30 09:31:16;;;;;;;10.35;6.10;;;15.70;99.90;;;;;;4997197;28;20120;-67
2022/09/30 09:33:42;;;;;;;6.75;5.97;;;15.70;99.90;;;;;;5078390;28;20126;-67
2022/09/30 09:36:20;;;;;;;9.88;6.30;;;15.80;99.90;;;;;;5094291;28;20039;-67
2022/09/30 09:39:18;;;;;;;8.02;6.68;;;16.00;99.90;;;;;;5085603;28;20127;-68
2022/09/30 09:42:03;;;;;;;7.88;7.05;;;16.10;99.90;;;;;;5086268;28;20036;-67
2022/09/30 09:44:55;;;;;;;8.02;7.22;;;16.10;99.90;;;;;;5121783;27;20494;-68
2022/09/30 09:47:20;;;;;;;11.30;6.95;;;16.30;99.90;;;;;;5089158;28;20075;-68
2022/09/30 09:49:56;;;;;;;8.20;5.97;;;16.40;99.90;;;;;;5088933;28;20082;-68
2022/09/30 09:52:27;;;;;;;9.38;6.10;;;16.40;99.90;;;;;;5089236;28;20554;-67
2022/09/30 09:54:55;;;;;;;8.77;5.73;;;16.50;99.90;;;;;;5089091;28;20471;-67
2022/09/30 09:57:26;;;;;;;6.45;5.78;;;16.70;99.90;;;;;;5088973;28;20035;-68
2022/09/30 10:03:18;;;;;;;7.20;4.78;;;16.90;99.90;;;;;;5087949;28;20036;-68
2022/09/30 10:05:46;;;;;;;5.65;4.88;;;17.00;99.90;;;;;;5089086;28;20486;-68
2022/09/30 10:08:20;;;;;;;8.25;5.18;;;17.00;99.90;;;;;;5085661;28;20090;-68
2022/09/30 10:10:56;;;;;;;6.45;5.00;;;17.40;99.90;;;;;;5084861;28;20089;-68
2022/09/30 10:13:26;;;;;;;5.03;4.07;;;17.70;99.90;;;;;;5081690;28;20039;-68
2022/09/30 10:15:55;;;;;;;4.63;4.13;;;18.00;99.90;;;;;;5086657;28;20033;-68
2022/09/30 10:18:26;;;;;;;6.47;4.10;;;18.10;99.90;;;;;;5068241;28;21047;-68
2022/09/30 10:21:19;;;;;;;4.53;4.03;;;18.10;99.90;;;;;;5086181;28;20047;-69
2022/09/30 10:23:45;;;;;;;6.80;3.58;;;18.40;99.90;;;;;;5090324;28;20047;-68
2022/09/30 10:26:14;;;;;;;5.60;4.50;;;18.60;99.90;;;;;;5091566;28;20036;-68
2022/09/30 10:28:57;;;;;;;4.75;3.58;;;18.70;99.90;;;;;;5091546;28;20138;-68
2022/09/30 10:31:33;;;;;;;4.05;3.65;;;18.80;99.90;;;;;;5073135;28;20043;-69
2022/09/30 10:34:08;;;;;;;4.35;3.95;;;18.90;99.90;;;;;;5074038;28;20043;-68
2022/09/30 10:36:36;;;;;;;4.55;3.60;;;19.00;99.90;;;;;;5090665;28;20086;-68
2022/09/30 10:39:22;;;;;;;4.10;3.70;;;19.10;99.90;;;;;;5091866;28;20032;-68
2022/09/30 10:42:09;;;;;;;4.32;3.88;;;19.30;99.90;;;;;;5091947;28;20036;-69
2022/09/30 10:44:45;;;;;;;4.32;3.45;;;19.30;99.90;;;;;;5090990;28;20047;-69
2022/09/30 10:47:20;;;;;;;6.68;3.60;;;19.50;99.90;;;;;;5091909;28;20498;-69
2022/09/30 10:49:50;;;;;;;4.15;3.40;;;19.70;99.90;;;;;;5091795;28;20040;-69
2022/09/30 10:52:26;;;;;;;4.35;3.47;;;19.50;99.90;;;;;;5091898;28;20040;-69
2022/09/30 10:54:56;;;;;;;4.68;3.10;;;19.90;99.90;;;;;;5074408;28;20051;-69
2022/09/30 10:57:27;;;;;;;4.45;3.22;;;20.10;99.90;;;;;;5091977;28;20032;-69
2022/09/30 11:00:05;;;;;;;4.47;3.50;;;20.20;99.90;;;;;;5091530;28;20161;-69
2022/09/30 11:02:40;;;;;;;5.43;3.00;;;20.10;98.80;;;;;;5091561;28;20083;-69
2022/09/30 11:05:18;;;;;;;4.40;3.50;;;20.10;99.80;;;;;;5091297;28;20043;-68
2022/09/30 11:07:45;;;;;;;4.75;3.50;;;20.10;99.00;;;;;;5091462;28;20056;-69
2022/09/30 11:10:30;;;;;;;4.75;3.50;;;20.20;99.80;;;;;;5091148;28;20136;-69
2022/09/30 11:13:16;;;;;;;3.75;2.88;;;20.00;98.60;;;;;;5091701;28;20142;-69
2022/09/30 11:15:48;;;;;;;4.38;2.78;;;20.20;99.30;;;;;;5059582;28;20638;-68
2022/09/30 11:18:24;;;;;;;4.13;3.15;;;20.30;99.70;;;;;;5091472;28;20032;-69
2022/09/30 11:20:56;;;;;;;3.92;3.22;;;20.40;98.10;;;;;;5074322;28;20043;-68
2022/09/30 11:23:32;;;;;;;5.20;2.90;;;20.40;97.20;;;;;;5074124;28;20514;-69
2022/09/30 11:26:26;;;;;;;5.88;3.53;;;20.10;97.70;;;;;;5090987;28;20169;-69
2022/09/30 11:29:12;;;;;;;6.00;4.00;;;19.80;98.70;;;;;;4993368;28;20045;-69
2022/09/30 11:31:38;;;;;;;4.00;3.60;;;19.50;98.90;;;;;;4932443;29;20573;-69
2022/09/30 11:34:22;;;;;;;4.53;3.90;;;19.80;99.40;;;;;;4915889;29;20128;-69
2022/09/30 11:36:59;;;;;;;5.95;3.90;;;19.70;99.00;;;;;;4916471;29;20047;-69
2022/09/30 11:39:32;;;;;;;4.93;4.07;;;19.50;98.50;;;;;;4916693;29;20098;-69
2022/09/30 11:42:05;;;;;;;5.88;4.70;;;19.50;98.80;;;;;;4916894;29;20506;-69
2022/09/30 11:44:36;;;;;;;6.18;4.72;;;19.30;98.50;;;;;;4916604;29;20047;-69
2022/09/30 11:47:17;;;;;;;6.78;4.38;;;19.10;98.90;;;;;;4916588;29;20139;-69
2022/09/30 11:49:55;;;;;;;6.13;4.75;;;19.10;99.40;;;;;;4932470;29;20547;-69
2022/09/30 11:52:39;;;;;;;9.73;5.80;;;19.30;99.90;;;;;;4916453;29;20574;-69
2022/09/30 11:55:42;;;;;;;9.07;6.20;;;19.30;99.70;;;;;;4916386;29;20055;-69
2022/09/30 11:58:18;;;;;;;5.97;5.38;;;19.30;98.70;;;;;;4914458;29;20130;-69
2022/09/30 12:00:57;;;;;;;7.15;5.55;;;19.00;98.60;;;;;;4931853;29;20082;-69
2022/09/30 12:03:32;;;;;;;7.15;5.38;;;18.60;98.70;;;;;;4916168;29;20060;-68
2022/09/30 12:06:03;;;;;;;8.57;6.95;;;18.40;99.30;;;;;;4951572;28;20535;-69
2022/09/30 12:08:37;;;;;;;9.52;7.13;;;18.20;98.80;;;;;;5040723;28;20048;-68
2022/09/30 12:11:27;;;;;;;7.35;6.65;;;17.80;99.40;;;;;;5090007;28;20414;-69
2022/09/30 12:13:59;;;;;;;7.70;6.90;;;17.60;99.90;;;;;;5090261;28;20493;-69
2022/09/30 12:16:30;;;;;;;6.88;6.18;;;17.50;99.90;;;;;;5089805;28;20127;-69
2022/09/30 12:19:00;;;;;;;4.72;4.30;;;17.50;99.90;;;;;;5089368;28;20040;-69
2022/09/30 12:21:32;;;;;;;4.35;3.95;;;17.40;99.90;;;;;;5089887;28;20047;-69
2022/09/30 12:24:01;;;;;;;;;;;17.50;99.90;;;;;;5090239;28;20039;-68
2022/09/30 12:26:28;;;;;;;7.90;4.15;;;17.30;99.80;;;;;;5089683;28;19916;-69
2022/09/30 12:31:57;;;;;;;4.45;3.22;;;17.30;99.90;;;;;;5089734;28;20481;-69
2022/09/30 12:34:30;;;;;;;3.83;3.40;;;17.30;99.90;;;;;;5072817;28;20050;-69
2022/09/30 12:37:29;;;;;;;3.83;3.28;;;17.30;99.90;;;;;;5072727;28;20085;-68
2022/09/30 12:40:21;;;;;;;5.88;3.80;;;17.30;99.90;;;;;;5088772;28;20055;-68
2022/09/30 12:43:11;;;;;;;3.50;3.13;;;17.30;99.90;;;;;;5105809;28;20054;-69
2022/09/30 12:45:56;;;;;;;6.35;3.45;;;17.20;99.90;;;;;;5087473;28;20040;-69
2022/09/30 12:48:27;;;;;;;4.18;3.33;;;17.20;99.80;;;;;;5089347;28;20036;-68
2022/09/30 12:50:56;;;;;;;7.07;4.45;;;17.30;99.90;;;;;;5089419;28;20031;-68
2022/09/30 12:53:29;;;;;;;6.50;4.72;;;17.20;99.90;;;;;;5089629;28;20111;-68
2022/09/30 12:56:13;;;;;;;4.30;3.90;;;17.30;99.90;;;;;;5072361;28;20044;-69
2022/09/30 12:58:59;;;;;;;7.45;4.57;;;17.50;99.90;;;;;;5088981;28;20036;-69
2022/09/30 13:01:28;;;;;;;7.00;5.07;;;17.30;99.90;;;;;;5071051;28;20135;-69
2022/09/30 13:03:59;;;;;;;4.85;3.95;;;17.20;99.70;;;;;;5089062;28;20040;-69
2022/09/30 13:06:27;;;;;;;8.47;4.63;;;17.10;99.60;;;;;;5089285;28;20079;-69
2022/09/30 13:08:56;;;;;;;5.75;4.63;;;17.00;99.90;;;;;;5089329;28;20043;-68
2022/09/30 13:11:35;;;;;;;7.90;5.00;;;17.00;99.50;;;;;;5089430;28;20036;-68
2022/09/30 13:14:19;;;;;;;7.07;4.63;;;17.00;99.90;;;;;;5104868;28;20432;-69
2022/09/30 13:17:07;;;;;;;5.72;4.97;;;17.10;99.90;;;;;;5081117;28;20044;-68
2022/09/30 13:19:43;;;;;;;4.90;4.45;;;17.10;99.90;;;;;;5088008;28;20031;-69
2022/09/30 13:22:18;;;;;;;5.60;4.60;;;17.10;99.60;;;;;;5088173;28;20051;-69
2022/09/30 13:24:59;;;;;;;7.47;4.68;;;17.10;99.90;;;;;;5088997;28;20051;-69
2022/09/30 13:27:38;;;;;;;6.00;4.85;;;17.00;98.70;;;;;;5088686;28;20093;-69